KCOT

Cotulla-La Salle County Airport

Cotulla, Texas, USA
METAR KCOT 150253Z AUTO 13013G21KT 10SM CLR 29/22 A2988 RMK AO2 SLP110 T02940222 53010
Observed Flight Rules
Aug-15 @ 02:53 UTC (42 minutes ago) Visual Flight Rules
Wind Visibility Clouds
130° at 13 knots
 Gusting to 21 knots
10 miles
  • Clear skies
Temperatures Readings
Current 29°C / 84°F
Dewpoint 22°C / 72°F
Humidity 66%
Altimeter 29.88" Hg
Pressure 1011 hPa
Elevation 140
METAR KCOT 150253Z AUTO 13013G21KT 10SM CLR 29/22 A2988 RMK AO2 SLP110 T02940222 53010
Observed Flight Rules
Aug-15 @ 02:53 UTC
(42 minutes ago)
VFR
Wind Visibility
130° at 13 knots
 Gusting to 21 knots
10 miles
Clouds
  • Clear skies
Temperature Dewpoint
29°C / 84°F 22°C / 72°F
Humidity Altimeter Pressure
66% 29.88" Hg 1011 hPa